sensor_id;sensor_type;location;lat;lon;timestamp;P1;durP1;ratioP1;P2;durP2;ratioP2
68178;SDS011;54998;42.656;23.382;2022-11-10T00:02:13;60.58;;;25.90;;
68178;SDS011;54998;42.656;23.382;2022-11-10T00:04:38;55.13;;;26.55;;
68178;SDS011;54998;42.656;23.382;2022-11-10T00:07:04;53.65;;;26.67;;
68178;SDS011;54998;42.656;23.382;2022-11-10T00:09:29;54.00;;;25.40;;
68178;SDS011;54998;42.656;23.382;2022-11-10T00:11:54;53.03;;;25.13;;
68178;SDS011;54998;42.656;23.382;2022-11-10T00:14:20;51.88;;;25.85;;
68178;SDS011;54998;42.656;23.382;2022-11-10T00:17:04;59.05;;;25.88;;
68178;SDS011;54998;42.656;23.382;2022-11-10T00:19:32;57.72;;;27.27;;
68178;SDS011;54998;42.656;23.382;2022-11-10T00:21:59;52.72;;;26.17;;
68178;SDS011;54998;42.656;23.382;2022-11-10T00:24:25;58.08;;;27.95;;
68178;SDS011;54998;42.656;23.382;2022-11-10T00:26:51;58.90;;;27.88;;
68178;SDS011;54998;42.656;23.382;2022-11-10T01:06:27;56.20;;;27.45;;
68178;SDS011;54998;42.656;23.382;2022-11-10T01:08:52;53.85;;;25.17;;
68178;SDS011;54998;42.656;23.382;2022-11-10T01:11:19;53.97;;;26.20;;
68178;SDS011;54998;42.656;23.382;2022-11-10T01:13:48;51.33;;;25.38;;
68178;SDS011;54998;42.656;23.382;2022-11-10T01:16:16;53.13;;;26.02;;
68178;SDS011;54998;42.656;23.382;2022-11-10T01:18:50;53.60;;;25.48;;
68178;SDS011;54998;42.656;23.382;2022-11-10T01:21:17;52.28;;;26.05;;
68178;SDS011;54998;42.656;23.382;2022-11-10T01:23:43;56.08;;;27.23;;
68178;SDS011;54998;42.656;23.382;2022-11-10T01:26:08;56.47;;;27.85;;
68178;SDS011;54998;42.656;23.382;2022-11-10T01:28:36;53.83;;;27.35;;
68178;SDS011;54998;42.656;23.382;2022-11-10T01:31:03;56.92;;;26.30;;
68178;SDS011;54998;42.656;23.382;2022-11-10T01:33:35;56.85;;;27.83;;
68178;SDS011;54998;42.656;23.382;2022-11-10T01:36:01;56.10;;;26.35;;
68178;SDS011;54998;42.656;23.382;2022-11-10T01:38:28;59.65;;;28.48;;
68178;SDS011;54998;42.656;23.382;2022-11-10T01:40:56;55.45;;;27.20;;
68178;SDS011;54998;42.656;23.382;2022-11-10T01:43:22;53.65;;;27.55;;
68178;SDS011;54998;42.656;23.382;2022-11-10T01:45:55;55.33;;;29.50;;
68178;SDS011;54998;42.656;23.382;2022-11-10T01:50:58;55.63;;;27.73;;
68178;SDS011;54998;42.656;23.382;2022-11-10T01:53:28;63.95;;;29.80;;
68178;SDS011;54998;42.656;23.382;2022-11-10T01:55:56;62.95;;;29.13;;
68178;SDS011;54998;42.656;23.382;2022-11-10T01:58:27;64.45;;;29.73;;
68178;SDS011;54998;42.656;23.382;2022-11-10T02:00:57;56.33;;;29.65;;
68178;SDS011;54998;42.656;23.382;2022-11-10T02:03:31;61.90;;;28.23;;
68178;SDS011;54998;42.656;23.382;2022-11-10T02:06:02;65.18;;;29.73;;
68178;SDS011;54998;42.656;23.382;2022-11-10T02:08:29;65.25;;;28.48;;
68178;SDS011;54998;42.656;23.382;2022-11-10T02:10:54;61.75;;;30.35;;
68178;SDS011;54998;42.656;23.382;2022-11-10T02:13:20;61.72;;;27.45;;
68178;SDS011;54998;42.656;23.382;2022-11-10T02:15:46;64.15;;;29.10;;
68178;SDS011;54998;42.656;23.382;2022-11-10T02:18:11;65.82;;;29.58;;
68178;SDS011;54998;42.656;23.382;2022-11-10T02:20:36;72.78;;;31.55;;
68178;SDS011;54998;42.656;23.382;2022-11-10T02:23:41;61.05;;;28.13;;
68178;SDS011;54998;42.656;23.382;2022-11-10T02:26:00;60.40;;;26.85;;
68178;SDS011;54998;42.656;23.382;2022-11-10T02:28:33;64.07;;;28.38;;
68178;SDS011;54998;42.656;23.382;2022-11-10T02:31:00;67.20;;;27.25;;
68178;SDS011;54998;42.656;23.382;2022-11-10T02:33:26;66.63;;;29.70;;
68178;SDS011;54998;42.656;23.382;2022-11-10T02:35:51;60.83;;;26.42;;
68178;SDS011;54998;42.656;23.382;2022-11-10T02:38:17;64.75;;;29.17;;
68178;SDS011;54998;42.656;23.382;2022-11-10T02:40:42;58.20;;;28.67;;
68178;SDS011;54998;42.656;23.382;2022-11-10T02:43:10;60.78;;;27.08;;
68178;SDS011;54998;42.656;23.382;2022-11-10T02:45:38;62.42;;;28.98;;
68178;SDS011;54998;42.656;23.382;2022-11-10T02:48:08;59.38;;;28.05;;
68178;SDS011;54998;42.656;23.382;2022-11-10T02:50:34;61.92;;;28.33;;
68178;SDS011;54998;42.656;23.382;2022-11-10T02:52:59;64.40;;;29.52;;
68178;SDS011;54998;42.656;23.382;2022-11-10T02:55:25;62.97;;;30.52;;
68178;SDS011;54998;42.656;23.382;2022-11-10T02:57:50;60.58;;;29.20;;
68178;SDS011;54998;42.656;23.382;2022-11-10T03:00:16;58.28;;;27.30;;
68178;SDS011;54998;42.656;23.382;2022-11-10T03:02:42;61.08;;;28.23;;
68178;SDS011;54998;42.656;23.382;2022-11-10T03:05:07;61.05;;;27.70;;
68178;SDS011;54998;42.656;23.382;2022-11-10T03:07:33;58.83;;;27.83;;
68178;SDS011;54998;42.656;23.382;2022-11-10T03:09:58;57.40;;;26.77;;
68178;SDS011;54998;42.656;23.382;2022-11-10T03:12:23;64.20;;;30.17;;
68178;SDS011;54998;42.656;23.382;2022-11-10T03:14:49;54.28;;;25.95;;
68178;SDS011;54998;42.656;23.382;2022-11-10T03:17:14;58.60;;;26.30;;
68178;SDS011;54998;42.656;23.382;2022-11-10T03:19:39;62.85;;;27.60;;
68178;SDS011;54998;42.656;23.382;2022-11-10T03:22:05;64.03;;;27.83;;
68178;SDS011;54998;42.656;23.382;2022-11-10T03:24:30;59.58;;;28.35;;
68178;SDS011;54998;42.656;23.382;2022-11-10T03:26:56;62.85;;;28.38;;
68178;SDS011;54998;42.656;23.382;2022-11-10T03:29:21;60.65;;;26.45;;
68178;SDS011;54998;42.656;23.382;2022-11-10T03:31:46;61.67;;;28.38;;
68178;SDS011;54998;42.656;23.382;2022-11-10T03:34:12;65.10;;;31.20;;
68178;SDS011;54998;42.656;23.382;2022-11-10T03:36:37;72.65;;;29.95;;
68178;SDS011;54998;42.656;23.382;2022-11-10T03:39:02;77.30;;;32.72;;
68178;SDS011;54998;42.656;23.382;2022-11-10T03:41:28;71.47;;;32.47;;
68178;SDS011;54998;42.656;23.382;2022-11-10T03:43:53;66.30;;;29.70;;
68178;SDS011;54998;42.656;23.382;2022-11-10T03:46:19;67.88;;;31.67;;
68178;SDS011;54998;42.656;23.382;2022-11-10T03:48:44;66.88;;;28.67;;
68178;SDS011;54998;42.656;23.382;2022-11-10T03:51:10;69.47;;;30.35;;
68178;SDS011;54998;42.656;23.382;2022-11-10T03:53:35;69.15;;;30.40;;
68178;SDS011;54998;42.656;23.382;2022-11-10T03:56:01;62.25;;;28.60;;
68178;SDS011;54998;42.656;23.382;2022-11-10T03:58:27;61.28;;;26.40;;
68178;SDS011;54998;42.656;23.382;2022-11-10T04:00:53;69.10;;;29.98;;
68178;SDS011;54998;42.656;23.382;2022-11-10T04:03:19;63.05;;;28.85;;
68178;SDS011;54998;42.656;23.382;2022-11-10T04:05:44;69.20;;;30.90;;
68178;SDS011;54998;42.656;23.382;2022-11-10T04:08:29;66.05;;;30.48;;
68178;SDS011;54998;42.656;23.382;2022-11-10T04:11:12;66.85;;;29.83;;
68178;SDS011;54998;42.656;23.382;2022-11-10T04:13:58;66.85;;;29.08;;
68178;SDS011;54998;42.656;23.382;2022-11-10T04:16:42;60.50;;;27.17;;
68178;SDS011;54998;42.656;23.382;2022-11-10T04:19:07;56.25;;;24.98;;
68178;SDS011;54998;42.656;23.382;2022-11-10T04:21:32;54.15;;;23.23;;
68178;SDS011;54998;42.656;23.382;2022-11-10T04:23:58;47.97;;;24.13;;
68178;SDS011;54998;42.656;23.382;2022-11-10T04:26:23;49.85;;;23.77;;
68178;SDS011;54998;42.656;23.382;2022-11-10T04:29:00;46.15;;;21.98;;
68178;SDS011;54998;42.656;23.382;2022-11-10T04:31:27;47.13;;;22.38;;
68178;SDS011;54998;42.656;23.382;2022-11-10T04:33:55;43.35;;;23.13;;
68178;SDS011;54998;42.656;23.382;2022-11-10T04:36:24;41.90;;;20.05;;
68178;SDS011;54998;42.656;23.382;2022-11-10T04:38:51;38.45;;;20.65;;
68178;SDS011;54998;42.656;23.382;2022-11-10T04:41:19;38.67;;;21.10;;
68178;SDS011;54998;42.656;23.382;2022-11-10T04:43:45;40.00;;;20.52;;
68178;SDS011;54998;42.656;23.382;2022-11-10T04:46:19;38.53;;;19.88;;
68178;SDS011;54998;42.656;23.382;2022-11-10T04:48:47;41.08;;;20.17;;
68178;SDS011;54998;42.656;23.382;2022-11-10T04:51:14;39.10;;;20.20;;
68178;SDS011;54998;42.656;23.382;2022-11-10T04:53:39;37.30;;;19.63;;
68178;SDS011;54998;42.656;23.382;2022-11-10T04:56:05;37.40;;;20.33;;
68178;SDS011;54998;42.656;23.382;2022-11-10T04:58:30;37.53;;;19.38;;
68178;SDS011;54998;42.656;23.382;2022-11-10T05:00:56;44.88;;;18.48;;
68178;SDS011;54998;42.656;23.382;2022-11-10T05:03:21;36.65;;;18.75;;
68178;SDS011;54998;42.656;23.382;2022-11-10T05:05:47;38.13;;;19.40;;
68178;SDS011;54998;42.656;23.382;2022-11-10T05:08:13;34.75;;;18.05;;
68178;SDS011;54998;42.656;23.382;2022-11-10T05:10:39;40.53;;;19.40;;
68178;SDS011;54998;42.656;23.382;2022-11-10T05:13:04;42.20;;;20.58;;
68178;SDS011;54998;42.656;23.382;2022-11-10T05:15:30;43.85;;;20.30;;
68178;SDS011;54998;42.656;23.382;2022-11-10T05:17:57;36.35;;;18.17;;
68178;SDS011;54998;42.656;23.382;2022-11-10T05:20:23;35.45;;;18.67;;
68178;SDS011;54998;42.656;23.382;2022-11-10T05:22:50;37.70;;;19.17;;
68178;SDS011;54998;42.656;23.382;2022-11-10T05:25:36;37.97;;;18.17;;
68178;SDS011;54998;42.656;23.382;2022-11-10T05:28:03;35.90;;;17.75;;
68178;SDS011;54998;42.656;23.382;2022-11-10T05:30:30;38.88;;;19.55;;
68178;SDS011;54998;42.656;23.382;2022-11-10T05:32:56;36.60;;;19.90;;
68178;SDS011;54998;42.656;23.382;2022-11-10T05:35:22;34.22;;;18.42;;
68178;SDS011;54998;42.656;23.382;2022-11-10T05:37:48;34.83;;;16.38;;
68178;SDS011;54998;42.656;23.382;2022-11-10T05:40:13;37.05;;;19.85;;
68178;SDS011;54998;42.656;23.382;2022-11-10T05:42:45;32.03;;;17.55;;
68178;SDS011;54998;42.656;23.382;2022-11-10T05:45:17;34.15;;;16.45;;
68178;SDS011;54998;42.656;23.382;2022-11-10T05:47:43;27.73;;;15.90;;
68178;SDS011;54998;42.656;23.382;2022-11-10T05:50:08;28.77;;;14.73;;
68178;SDS011;54998;42.656;23.382;2022-11-10T05:52:34;31.48;;;16.20;;
68178;SDS011;54998;42.656;23.382;2022-11-10T05:55:03;25.63;;;14.13;;
68178;SDS011;54998;42.656;23.382;2022-11-10T05:57:29;28.15;;;14.60;;
68178;SDS011;54998;42.656;23.382;2022-11-10T05:59:55;23.83;;;14.82;;
68178;SDS011;54998;42.656;23.382;2022-11-10T06:02:20;24.15;;;14.20;;
68178;SDS011;54998;42.656;23.382;2022-11-10T06:04:46;25.15;;;14.90;;
68178;SDS011;54998;42.656;23.382;2022-11-10T06:07:11;24.70;;;14.70;;
68178;SDS011;54998;42.656;23.382;2022-11-10T06:09:36;23.90;;;13.73;;
68178;SDS011;54998;42.656;23.382;2022-11-10T06:12:02;23.83;;;14.85;;
68178;SDS011;54998;42.656;23.382;2022-11-10T06:14:28;24.08;;;13.27;;
68178;SDS011;54998;42.656;23.382;2022-11-10T06:16:54;27.08;;;14.90;;
68178;SDS011;54998;42.656;23.382;2022-11-10T06:19:19;23.88;;;14.45;;
68178;SDS011;54998;42.656;23.382;2022-11-10T06:21:44;24.55;;;14.23;;
68178;SDS011;54998;42.656;23.382;2022-11-10T06:24:10;21.40;;;12.65;;
68178;SDS011;54998;42.656;23.382;2022-11-10T06:26:35;25.48;;;15.13;;
68178;SDS011;54998;42.656;23.382;2022-11-10T06:29:01;23.27;;;14.85;;
68178;SDS011;54998;42.656;23.382;2022-11-10T06:31:27;23.30;;;13.80;;
68178;SDS011;54998;42.656;23.382;2022-11-10T06:33:52;23.70;;;14.30;;
68178;SDS011;54998;42.656;23.382;2022-11-10T06:36:18;22.70;;;14.02;;
68178;SDS011;54998;42.656;23.382;2022-11-10T06:38:43;25.13;;;15.15;;
68178;SDS011;54998;42.656;23.382;2022-11-10T06:41:09;22.60;;;14.20;;
68178;SDS011;54998;42.656;23.382;2022-11-10T06:43:34;22.23;;;14.30;;
68178;SDS011;54998;42.656;23.382;2022-11-10T06:45:59;23.15;;;13.82;;
68178;SDS011;54998;42.656;23.382;2022-11-10T06:48:25;21.23;;;13.20;;
68178;SDS011;54998;42.656;23.382;2022-11-10T06:50:50;23.55;;;14.32;;
68178;SDS011;54998;42.656;23.382;2022-11-10T06:53:15;20.85;;;13.40;;
68178;SDS011;54998;42.656;23.382;2022-11-10T06:55:42;23.27;;;14.70;;
68178;SDS011;54998;42.656;23.382;2022-11-10T06:58:07;24.02;;;15.68;;
68178;SDS011;54998;42.656;23.382;2022-11-10T07:00:33;26.40;;;13.27;;
68178;SDS011;54998;42.656;23.382;2022-11-10T07:03:03;25.33;;;14.70;;
68178;SDS011;54998;42.656;23.382;2022-11-10T07:05:31;23.13;;;16.33;;
68178;SDS011;54998;42.656;23.382;2022-11-10T07:08:05;23.85;;;16.17;;
68178;SDS011;54998;42.656;23.382;2022-11-10T07:10:37;22.35;;;15.30;;
68178;SDS011;54998;42.656;23.382;2022-11-10T07:13:03;21.25;;;15.18;;
68178;SDS011;54998;42.656;23.382;2022-11-10T07:15:29;23.05;;;15.20;;
68178;SDS011;54998;42.656;23.382;2022-11-10T07:17:55;21.98;;;15.10;;
68178;SDS011;54998;42.656;23.382;2022-11-10T07:20:21;27.40;;;17.65;;
68178;SDS011;54998;42.656;23.382;2022-11-10T07:22:47;30.75;;;18.90;;
68178;SDS011;54998;42.656;23.382;2022-11-10T07:25:13;37.58;;;22.75;;
68178;SDS011;54998;42.656;23.382;2022-11-10T07:27:38;38.38;;;22.05;;
68178;SDS011;54998;42.656;23.382;2022-11-10T07:30:04;47.65;;;26.98;;
68178;SDS011;54998;42.656;23.382;2022-11-10T07:32:30;45.55;;;24.13;;
68178;SDS011;54998;42.656;23.382;2022-11-10T07:34:56;52.22;;;27.13;;
68178;SDS011;54998;42.656;23.382;2022-11-10T07:37:21;50.95;;;25.27;;
68178;SDS011;54998;42.656;23.382;2022-11-10T07:39:47;46.92;;;24.65;;
68178;SDS011;54998;42.656;23.382;2022-11-10T07:42:12;51.22;;;25.38;;
68178;SDS011;54998;42.656;23.382;2022-11-10T07:44:37;46.00;;;23.67;;
68178;SDS011;54998;42.656;23.382;2022-11-10T07:47:03;49.97;;;27.48;;
68178;SDS011;54998;42.656;23.382;2022-11-10T07:49:28;43.55;;;24.15;;
68178;SDS011;54998;42.656;23.382;2022-11-10T07:51:54;47.85;;;29.30;;
68178;SDS011;54998;42.656;23.382;2022-11-10T07:54:19;44.80;;;25.85;;
68178;SDS011;54998;42.656;23.382;2022-11-10T07:56:45;40.03;;;26.38;;
68178;SDS011;54998;42.656;23.382;2022-11-10T07:59:10;44.38;;;28.55;;
68178;SDS011;54998;42.656;23.382;2022-11-10T08:01:35;44.88;;;28.95;;
68178;SDS011;54998;42.656;23.382;2022-11-10T08:04:01;41.00;;;28.40;;
68178;SDS011;54998;42.656;23.382;2022-11-10T08:06:26;47.25;;;30.48;;
68178;SDS011;54998;42.656;23.382;2022-11-10T08:08:52;45.67;;;29.10;;
68178;SDS011;54998;42.656;23.382;2022-11-10T08:11:17;45.17;;;31.33;;
68178;SDS011;54998;42.656;23.382;2022-11-10T08:13:42;44.10;;;30.88;;
68178;SDS011;54998;42.656;23.382;2022-11-10T08:16:08;43.40;;;32.00;;
68178;SDS011;54998;42.656;23.382;2022-11-10T08:18:33;41.00;;;30.92;;
68178;SDS011;54998;42.656;23.382;2022-11-10T08:20:59;47.80;;;32.10;;
68178;SDS011;54998;42.656;23.382;2022-11-10T08:23:25;46.85;;;31.70;;
68178;SDS011;54998;42.656;23.382;2022-11-10T08:25:52;52.30;;;34.75;;
68178;SDS011;54998;42.656;23.382;2022-11-10T08:28:18;52.25;;;35.70;;
68178;SDS011;54998;42.656;23.382;2022-11-10T08:33:11;55.55;;;33.80;;
68178;SDS011;54998;42.656;23.382;2022-11-10T08:35:39;52.67;;;34.78;;
68178;SDS011;54998;42.656;23.382;2022-11-10T08:38:10;50.33;;;32.95;;
68178;SDS011;54998;42.656;23.382;2022-11-10T08:40:36;52.50;;;34.50;;
68178;SDS011;54998;42.656;23.382;2022-11-10T08:43:02;55.15;;;37.42;;
68178;SDS011;54998;42.656;23.382;2022-11-10T08:45:31;54.92;;;35.47;;
68178;SDS011;54998;42.656;23.382;2022-11-10T08:48:00;54.72;;;36.78;;
68178;SDS011;54998;42.656;23.382;2022-11-10T08:50:28;62.10;;;36.65;;
68178;SDS011;54998;42.656;23.382;2022-11-10T08:52:54;60.05;;;38.38;;
68178;SDS011;54998;42.656;23.382;2022-11-10T08:55:19;60.67;;;39.80;;
68178;SDS011;54998;42.656;23.382;2022-11-10T08:57:45;59.45;;;38.15;;
68178;SDS011;54998;42.656;23.382;2022-11-10T09:00:15;63.83;;;39.97;;
68178;SDS011;54998;42.656;23.382;2022-11-10T09:02:41;69.32;;;41.58;;
68178;SDS011;54998;42.656;23.382;2022-11-10T09:05:06;69.07;;;41.50;;
68178;SDS011;54998;42.656;23.382;2022-11-10T09:07:42;61.33;;;40.33;;
68178;SDS011;54998;42.656;23.382;2022-11-10T09:10:09;64.50;;;38.58;;
68178;SDS011;54998;42.656;23.382;2022-11-10T09:12:35;63.22;;;37.03;;
68178;SDS011;54998;42.656;23.382;2022-11-10T09:17:26;65.00;;;40.27;;
68178;SDS011;54998;42.656;23.382;2022-11-10T09:19:51;62.58;;;37.88;;
68178;SDS011;54998;42.656;23.382;2022-11-10T09:22:17;66.90;;;38.92;;
68178;SDS011;54998;42.656;23.382;2022-11-10T09:24:42;68.22;;;37.30;;
68178;SDS011;54998;42.656;23.382;2022-11-10T09:27:07;66.65;;;39.25;;
68178;SDS011;54998;42.656;23.382;2022-11-10T09:29:33;66.30;;;39.95;;
68178;SDS011;54998;42.656;23.382;2022-11-10T09:31:58;68.03;;;41.88;;
68178;SDS011;54998;42.656;23.382;2022-11-10T09:34:23;71.97;;;39.78;;
68178;SDS011;54998;42.656;23.382;2022-11-10T09:36:49;68.75;;;41.45;;
68178;SDS011;54998;42.656;23.382;2022-11-10T09:39:14;71.38;;;44.35;;
68178;SDS011;54998;42.656;23.382;2022-11-10T09:41:40;73.35;;;41.50;;
68178;SDS011;54998;42.656;23.382;2022-11-10T09:44:10;66.00;;;40.47;;
68178;SDS011;54998;42.656;23.382;2022-11-10T09:46:53;66.97;;;40.28;;
68178;SDS011;54998;42.656;23.382;2022-11-10T09:51:58;66.03;;;38.60;;
68178;SDS011;54998;42.656;23.382;2022-11-10T09:54:45;67.85;;;41.15;;
68178;SDS011;54998;42.656;23.382;2022-11-10T09:57:17;61.58;;;38.78;;
68178;SDS011;54998;42.656;23.382;2022-11-10T10:33:38;57.95;;;37.05;;
68178;SDS011;54998;42.656;23.382;2022-11-10T10:36:07;58.70;;;37.97;;
68178;SDS011;54998;42.656;23.382;2022-11-10T10:38:38;61.00;;;38.35;;
68178;SDS011;54998;42.656;23.382;2022-11-10T10:44:00;56.50;;;35.40;;
68178;SDS011;54998;42.656;23.382;2022-11-10T10:46:26;57.65;;;37.03;;
68178;SDS011;54998;42.656;23.382;2022-11-10T10:49:06;62.65;;;37.85;;
68178;SDS011;54998;42.656;23.382;2022-11-10T10:51:35;56.60;;;36.30;;
68178;SDS011;54998;42.656;23.382;2022-11-10T10:54:00;56.72;;;37.78;;
68178;SDS011;54998;42.656;23.382;2022-11-10T10:56:26;55.70;;;36.90;;
68178;SDS011;54998;42.656;23.382;2022-11-10T11:01:29;56.80;;;35.30;;
68178;SDS011;54998;42.656;23.382;2022-11-10T11:03:59;57.58;;;35.85;;
68178;SDS011;54998;42.656;23.382;2022-11-10T11:06:29;56.47;;;36.58;;
68178;SDS011;54998;42.656;23.382;2022-11-10T11:09:14;52.85;;;37.22;;
68178;SDS011;54998;42.656;23.382;2022-11-10T11:11:42;55.20;;;35.97;;
68178;SDS011;54998;42.656;23.382;2022-11-10T11:14:11;57.30;;;36.45;;
68178;SDS011;54998;42.656;23.382;2022-11-10T11:19:20;53.30;;;35.83;;
68178;SDS011;54998;42.656;23.382;2022-11-10T11:27:07;52.10;;;34.20;;
68178;SDS011;54998;42.656;23.382;2022-11-10T11:41:17;48.92;;;31.83;;
68178;SDS011;54998;42.656;23.382;2022-11-10T11:43:53;49.45;;;32.85;;
68178;SDS011;54998;42.656;23.382;2022-11-10T11:57:07;53.45;;;32.55;;
68178;SDS011;54998;42.656;23.382;2022-11-10T12:00:06;58.05;;;32.28;;
68178;SDS011;54998;42.656;23.382;2022-11-10T12:17:37;56.58;;;32.58;;
68178;SDS011;54998;42.656;23.382;2022-11-10T12:20:33;58.78;;;32.95;;
68178;SDS011;54998;42.656;23.382;2022-11-10T12:29:08;57.00;;;32.28;;
68178;SDS011;54998;42.656;23.382;2022-11-10T12:31:43;56.47;;;30.40;;
68178;SDS011;54998;42.656;23.382;2022-11-10T12:36:55;56.20;;;30.88;;
68178;SDS011;54998;42.656;23.382;2022-11-10T12:39:24;56.08;;;29.95;;
68178;SDS011;54998;42.656;23.382;2022-11-10T12:42:11;55.78;;;30.88;;
68178;SDS011;54998;42.656;23.382;2022-11-10T12:45:10;57.22;;;32.40;;
68178;SDS011;54998;42.656;23.382;2022-11-10T12:47:44;53.65;;;29.38;;
68178;SDS011;54998;42.656;23.382;2022-11-10T12:55:45;53.85;;;27.88;;
68178;SDS011;54998;42.656;23.382;2022-11-10T12:58:15;51.13;;;29.58;;
68178;SDS011;54998;42.656;23.382;2022-11-10T13:00:53;56.22;;;29.75;;
68178;SDS011;54998;42.656;23.382;2022-11-10T13:03:55;57.17;;;30.33;;
68178;SDS011;54998;42.656;23.382;2022-11-10T13:06:28;56.13;;;29.38;;
68178;SDS011;54998;42.656;23.382;2022-11-10T13:08:56;52.30;;;28.95;;
68178;SDS011;54998;42.656;23.382;2022-11-10T13:11:24;57.88;;;29.10;;
68178;SDS011;54998;42.656;23.382;2022-11-10T13:16:54;52.58;;;30.95;;
68178;SDS011;54998;42.656;23.382;2022-11-10T13:22:01;53.40;;;29.80;;
68178;SDS011;54998;42.656;23.382;2022-11-10T13:24:30;54.95;;;29.45;;
68178;SDS011;54998;42.656;23.382;2022-11-10T13:27:04;47.80;;;28.17;;
68178;SDS011;54998;42.656;23.382;2022-11-10T13:34:37;50.53;;;28.77;;
68178;SDS011;54998;42.656;23.382;2022-11-10T13:39:48;56.38;;;28.27;;
68178;SDS011;54998;42.656;23.382;2022-11-10T13:42:17;52.35;;;29.23;;
68178;SDS011;54998;42.656;23.382;2022-11-10T13:44:47;51.05;;;27.77;;
68178;SDS011;54998;42.656;23.382;2022-11-10T13:50:12;50.75;;;27.25;;
68178;SDS011;54998;42.656;23.382;2022-11-10T14:00:31;55.17;;;28.60;;
68178;SDS011;54998;42.656;23.382;2022-11-10T14:03:00;58.97;;;31.27;;
68178;SDS011;54998;42.656;23.382;2022-11-10T14:08:14;46.88;;;26.00;;
68178;SDS011;54998;42.656;23.382;2022-11-10T14:10:52;51.28;;;27.73;;
68178;SDS011;54998;42.656;23.382;2022-11-10T14:13:23;51.30;;;29.35;;
68178;SDS011;54998;42.656;23.382;2022-11-10T14:18:37;53.80;;;28.35;;
68178;SDS011;54998;42.656;23.382;2022-11-10T14:21:11;52.67;;;29.77;;
68178;SDS011;54998;42.656;23.382;2022-11-10T14:23:54;54.63;;;27.35;;
68178;SDS011;54998;42.656;23.382;2022-11-10T14:26:36;55.95;;;31.73;;
68178;SDS011;54998;42.656;23.382;2022-11-10T14:29:20;56.20;;;29.55;;
68178;SDS011;54998;42.656;23.382;2022-11-10T14:31:53;54.72;;;29.52;;
68178;SDS011;54998;42.656;23.382;2022-11-10T14:34:20;59.13;;;28.65;;
68178;SDS011;54998;42.656;23.382;2022-11-10T14:36:54;57.42;;;27.67;;
68178;SDS011;54998;42.656;23.382;2022-11-10T14:39:28;55.30;;;30.42;;
68178;SDS011;54998;42.656;23.382;2022-11-10T14:41:58;57.22;;;31.35;;
68178;SDS011;54998;42.656;23.382;2022-11-10T14:44:29;54.88;;;30.10;;
68178;SDS011;54998;42.656;23.382;2022-11-10T14:46:55;56.65;;;29.48;;
68178;SDS011;54998;42.656;23.382;2022-11-10T14:49:36;57.50;;;29.08;;
68178;SDS011;54998;42.656;23.382;2022-11-10T14:52:01;56.88;;;29.77;;
68178;SDS011;54998;42.656;23.382;2022-11-10T14:54:27;61.20;;;32.17;;
68178;SDS011;54998;42.656;23.382;2022-11-10T14:56:53;59.60;;;29.90;;
68178;SDS011;54998;42.656;23.382;2022-11-10T14:59:20;63.42;;;33.28;;
68178;SDS011;54998;42.656;23.382;2022-11-10T15:01:49;65.95;;;32.40;;
68178;SDS011;54998;42.656;23.382;2022-11-10T15:04:19;58.00;;;30.27;;
68178;SDS011;54998;42.656;23.382;2022-11-10T15:06:49;59.08;;;31.17;;
68178;SDS011;54998;42.656;23.382;2022-11-10T15:09:24;62.78;;;30.05;;
68178;SDS011;54998;42.656;23.382;2022-11-10T15:22:10;63.63;;;33.33;;
68178;SDS011;54998;42.656;23.382;2022-11-10T15:24:45;62.95;;;31.88;;
68178;SDS011;54998;42.656;23.382;2022-11-10T15:27:13;63.00;;;31.60;;
68178;SDS011;54998;42.656;23.382;2022-11-10T15:29:56;59.90;;;32.28;;
68178;SDS011;54998;42.656;23.382;2022-11-10T15:32:24;71.68;;;32.85;;
68178;SDS011;54998;42.656;23.382;2022-11-10T15:35:09;53.72;;;27.98;;
68178;SDS011;54998;42.656;23.382;2022-11-10T15:37:56;61.17;;;30.33;;
68178;SDS011;54998;42.656;23.382;2022-11-10T15:46:31;58.20;;;29.10;;
68178;SDS011;54998;42.656;23.382;2022-11-10T15:48:40;54.50;;;25.65;;
68178;SDS011;54998;42.656;23.382;2022-11-10T15:51:09;50.90;;;27.15;;
68178;SDS011;54998;42.656;23.382;2022-11-10T15:53:36;51.08;;;25.13;;
68178;SDS011;54998;42.656;23.382;2022-11-10T15:56:04;52.78;;;26.38;;
68178;SDS011;54998;42.656;23.382;2022-11-10T15:58:31;52.42;;;25.52;;
68178;SDS011;54998;42.656;23.382;2022-11-10T16:00:57;51.75;;;24.20;;
68178;SDS011;54998;42.656;23.382;2022-11-10T16:03:25;51.53;;;27.30;;
68178;SDS011;54998;42.656;23.382;2022-11-10T16:05:51;54.13;;;25.63;;
68178;SDS011;54998;42.656;23.382;2022-11-10T16:08:21;49.88;;;25.02;;
68178;SDS011;54998;42.656;23.382;2022-11-10T16:10:48;51.85;;;26.58;;
68178;SDS011;54998;42.656;23.382;2022-11-10T16:13:21;51.33;;;24.63;;
68178;SDS011;54998;42.656;23.382;2022-11-10T16:15:54;47.80;;;26.50;;
68178;SDS011;54998;42.656;23.382;2022-11-10T16:18:22;51.70;;;25.83;;
68178;SDS011;54998;42.656;23.382;2022-11-10T16:20:50;50.58;;;27.95;;
68178;SDS011;54998;42.656;23.382;2022-11-10T16:23:16;48.90;;;26.65;;
68178;SDS011;54998;42.656;23.382;2022-11-10T16:25:42;49.80;;;24.35;;
68178;SDS011;54998;42.656;23.382;2022-11-10T16:28:09;50.58;;;29.35;;
68178;SDS011;54998;42.656;23.382;2022-11-10T16:30:35;56.88;;;29.65;;
68178;SDS011;54998;42.656;23.382;2022-11-10T16:33:01;47.60;;;22.85;;
68178;SDS011;54998;42.656;23.382;2022-11-10T16:35:27;49.50;;;26.83;;
68178;SDS011;54998;42.656;23.382;2022-11-10T16:37:52;49.40;;;25.35;;
68178;SDS011;54998;42.656;23.382;2022-11-10T16:40:19;43.67;;;21.52;;
68178;SDS011;54998;42.656;23.382;2022-11-10T16:42:46;40.20;;;19.63;;
68178;SDS011;54998;42.656;23.382;2022-11-10T16:45:12;44.90;;;21.42;;
68178;SDS011;54998;42.656;23.382;2022-11-10T16:47:43;40.78;;;20.98;;
68178;SDS011;54998;42.656;23.382;2022-11-10T16:50:25;39.95;;;21.95;;
68178;SDS011;54998;42.656;23.382;2022-11-10T16:52:52;43.30;;;21.60;;
68178;SDS011;54998;42.656;23.382;2022-11-10T16:55:18;44.00;;;22.75;;
68178;SDS011;54998;42.656;23.382;2022-11-10T16:57:44;47.97;;;22.45;;
68178;SDS011;54998;42.656;23.382;2022-11-10T17:00:09;48.78;;;23.58;;
68178;SDS011;54998;42.656;23.382;2022-11-10T17:02:35;42.25;;;23.00;;
68178;SDS011;54998;42.656;23.382;2022-11-10T17:05:03;46.83;;;22.73;;
68178;SDS011;54998;42.656;23.382;2022-11-10T17:07:29;44.10;;;21.67;;
68178;SDS011;54998;42.656;23.382;2022-11-10T17:09:55;51.28;;;24.60;;
68178;SDS011;54998;42.656;23.382;2022-11-10T17:12:22;47.25;;;23.83;;
68178;SDS011;54998;42.656;23.382;2022-11-10T17:14:47;50.72;;;24.40;;
68178;SDS011;54998;42.656;23.382;2022-11-10T17:17:13;56.00;;;27.52;;
68178;SDS011;54998;42.656;23.382;2022-11-10T17:19:42;54.97;;;26.58;;
68178;SDS011;54998;42.656;23.382;2022-11-10T17:22:09;47.85;;;23.90;;
68178;SDS011;54998;42.656;23.382;2022-11-10T17:24:36;55.63;;;25.33;;
68178;SDS011;54998;42.656;23.382;2022-11-10T17:27:02;60.55;;;30.70;;
68178;SDS011;54998;42.656;23.382;2022-11-10T17:29:27;58.95;;;28.77;;